Terminal Aerodrome Forecast
Issued by NWS Riverton, WY

Home | Current Version | Previous Version | Text Only | Print | Product List | Glossary On
Versions: 1 2 3 4 5 6 7 8 9 10 11 12 13
000
FTUS45 KRIW 271700
TAFRIW
TAF
KRIW 271722Z 2718/2818 VRB06KT P6SM SCT200
     FM280500 VRB03KT P6SM VCFG SKC
     FM281500 VRB03KT P6SM SKC=

USA.gov is the U.S. government's official web portal to all federal, state and local government web resources and services.